createdAt,value
2018-07-12T00:00:46.639Z,0.00
2018-07-12T00:01:46.657Z,0.00
2018-07-12T00:02:46.655Z,0.00
2018-07-12T00:03:46.674Z,0.00
2018-07-12T00:04:46.678Z,0.00
2018-07-12T00:05:46.689Z,0.00
2018-07-12T00:06:46.701Z,0.00
2018-07-12T00:07:46.715Z,0.00
2018-07-12T00:08:46.722Z,0.00
2018-07-12T00:09:46.732Z,0.00
2018-07-12T00:10:46.739Z,0.00
2018-07-12T00:11:46.756Z,0.00
2018-07-12T00:12:46.761Z,0.00
2018-07-12T00:13:46.770Z,0.00
2018-07-12T00:14:46.790Z,0.00
2018-07-12T00:15:46.797Z,0.00
2018-07-12T00:16:46.806Z,0.00
2018-07-12T00:17:46.818Z,0.00
2018-07-12T00:18:46.828Z,0.00
2018-07-12T00:19:46.838Z,0.00
2018-07-12T00:20:46.845Z,0.00
2018-07-12T00:21:46.860Z,0.00
2018-07-12T00:22:46.882Z,0.00
2018-07-12T00:23:46.879Z,0.00
2018-07-12T00:24:46.898Z,0.00
2018-07-12T00:25:46.910Z,0.00
2018-07-12T00:26:46.917Z,0.00
2018-07-12T00:27:46.921Z,0.00
2018-07-12T00:28:46.937Z,0.00
2018-07-12T00:29:46.948Z,0.00
2018-07-12T00:30:46.953Z,0.00
2018-07-12T00:31:46.964Z,0.00
2018-07-12T00:32:46.977Z,0.00
2018-07-12T00:33:47.016Z,0.00
2018-07-12T00:34:47.000Z,0.00
2018-07-12T00:35:47.004Z,0.00
2018-07-12T00:36:47.017Z,0.00
2018-07-12T00:37:47.041Z,0.00
2018-07-12T00:38:47.040Z,0.00
2018-07-12T00:39:47.054Z,0.00
2018-07-12T00:40:47.063Z,0.00
2018-07-12T00:41:47.075Z,0.00
2018-07-12T00:42:47.082Z,0.00
2018-07-12T00:43:47.092Z,0.00
2018-07-12T00:44:47.109Z,0.00
2018-07-12T00:45:47.118Z,0.00
2018-07-12T00:46:47.125Z,0.00
2018-07-12T00:47:47.142Z,0.00
2018-07-12T00:48:47.143Z,0.00
2018-07-12T00:49:47.162Z,0.00
2018-07-12T00:50:47.169Z,0.00
2018-07-12T00:51:47.189Z,0.00
2018-07-12T00:52:47.194Z,0.00
2018-07-12T00:53:47.201Z,0.00
2018-07-12T00:54:47.209Z,0.00
2018-07-12T00:55:47.224Z,0.00
2018-07-12T00:56:47.252Z,0.00
2018-07-12T00:57:47.250Z,0.00
2018-07-12T00:58:47.253Z,0.00
2018-07-12T00:59:47.260Z,0.00
2018-07-12T01:00:47.285Z,0.00
2018-07-12T01:01:47.281Z,0.00
2018-07-12T01:02:47.294Z,0.00
2018-07-12T01:03:47.297Z,0.00
2018-07-12T01:04:47.316Z,0.00
2018-07-12T01:05:47.321Z,0.00
2018-07-12T01:06:47.337Z,0.00
2018-07-12T01:07:47.369Z,0.00
2018-07-12T01:08:47.362Z,0.00
2018-07-12T01:09:47.367Z,0.00
2018-07-12T01:10:47.379Z,0.00
2018-07-12T01:11:47.399Z,0.00
2018-07-12T01:13:47.415Z,0.00
2018-07-12T01:14:47.420Z,0.00
2018-07-12T01:15:47.431Z,0.00
2018-07-12T01:16:47.457Z,0.00
2018-07-12T01:17:47.520Z,0.00
2018-07-12T01:18:47.467Z,0.00
2018-07-12T01:19:47.472Z,0.00
2018-07-12T01:20:47.492Z,0.00
2018-07-12T01:21:47.497Z,0.00
2018-07-12T01:22:47.520Z,0.00
2018-07-12T01:23:47.516Z,0.00
2018-07-12T01:24:47.534Z,0.00
2018-07-12T01:25:47.543Z,0.00
2018-07-12T01:26:47.551Z,0.00
2018-07-12T01:27:47.563Z,0.00
2018-07-12T01:28:47.564Z,0.00
2018-07-12T01:29:47.573Z,0.00
2018-07-12T01:30:47.584Z,0.00
2018-07-12T01:31:47.592Z,0.00
2018-07-12T01:32:47.605Z,0.00
2018-07-12T01:33:47.615Z,0.00
2018-07-12T01:34:47.629Z,0.00
2018-07-12T01:35:47.646Z,0.00
2018-07-12T01:36:47.644Z,0.00
2018-07-12T01:37:47.665Z,0.00
2018-07-12T01:38:47.675Z,0.00
2018-07-12T01:39:47.686Z,0.00
2018-07-12T01:40:47.696Z,0.00
2018-07-12T01:41:47.700Z,0.00
2018-07-12T01:42:47.716Z,0.00
2018-07-12T01:43:47.725Z,0.00
2018-07-12T01:44:47.739Z,0.00
2018-07-12T01:45:47.757Z,0.00
2018-07-12T01:46:47.757Z,0.00
2018-07-12T01:47:47.774Z,0.00
2018-07-12T01:48:47.780Z,0.00
2018-07-12T01:49:47.816Z,0.00
2018-07-12T01:50:47.809Z,0.00
2018-07-12T01:51:47.822Z,0.00
2018-07-12T01:52:47.814Z,0.00
2018-07-12T01:53:47.837Z,0.00
2018-07-12T01:54:47.841Z,0.00
2018-07-12T01:55:47.844Z,0.00
2018-07-12T01:56:47.856Z,0.00
2018-07-12T01:57:47.862Z,0.00
2018-07-12T01:58:47.870Z,0.00
2018-07-12T01:59:47.883Z,0.00
2018-07-12T02:00:47.894Z,0.00
2018-07-12T02:01:47.908Z,0.00
2018-07-12T02:02:47.919Z,0.00
2018-07-12T02:03:47.930Z,0.00
2018-07-12T02:04:47.944Z,0.00
2018-07-12T02:05:47.952Z,0.00
2018-07-12T02:06:47.961Z,0.00
2018-07-12T02:07:47.968Z,0.00
2018-07-12T02:08:47.983Z,0.00
2018-07-12T02:09:47.997Z,0.00
2018-07-12T02:10:47.998Z,0.00
2018-07-12T02:11:48.012Z,0.00
2018-07-12T02:12:48.020Z,0.00
2018-07-12T02:13:48.038Z,0.00
2018-07-12T02:14:48.043Z,0.00
2018-07-12T02:15:48.052Z,0.00
2018-07-12T02:16:48.060Z,0.00
2018-07-12T02:17:48.071Z,0.00
2018-07-12T02:18:48.082Z,0.00
2018-07-12T02:19:48.097Z,0.00
2018-07-12T02:20:48.114Z,0.00
2018-07-12T02:21:48.124Z,0.00
2018-07-12T02:22:48.126Z,0.00
2018-07-12T02:23:48.133Z,0.00
2018-07-12T02:24:48.147Z,0.00
2018-07-12T02:25:48.156Z,0.00
2018-07-12T02:26:48.159Z,0.00
2018-07-12T02:27:48.167Z,0.00
2018-07-12T02:28:48.183Z,0.00
2018-07-12T02:29:48.192Z,0.00
2018-07-12T02:30:48.204Z,0.00
2018-07-12T02:31:48.219Z,0.00
2018-07-12T02:32:48.221Z,0.00
2018-07-12T02:33:48.228Z,0.00
2018-07-12T02:34:48.245Z,0.00
2018-07-12T02:35:48.270Z,0.00
2018-07-12T02:36:48.270Z,0.00
2018-07-12T02:37:48.278Z,0.00
2018-07-12T02:38:48.292Z,0.00
2018-07-12T02:39:48.300Z,0.00
2018-07-12T02:40:48.309Z,0.00
2018-07-12T02:41:48.318Z,0.00
2018-07-12T02:42:48.325Z,0.00
2018-07-12T02:43:48.334Z,4.00
2018-07-12T02:44:48.356Z,4.00
2018-07-12T02:45:48.366Z,4.00
2018-07-12T02:46:48.371Z,0.00
2018-07-12T02:47:48.377Z,0.00
2018-07-12T02:48:48.393Z,4.00
2018-07-12T02:49:48.401Z,4.00
2018-07-12T02:50:48.402Z,4.00
2018-07-12T02:51:48.417Z,4.00
2018-07-12T02:52:48.428Z,4.00
2018-07-12T02:53:48.436Z,4.00
2018-07-12T02:54:48.452Z,8.00
2018-07-12T02:55:48.468Z,4.00
2018-07-12T02:56:48.470Z,8.00
2018-07-12T02:57:48.485Z,12.00
2018-07-12T02:58:48.496Z,8.00
2018-07-12T02:59:48.498Z,12.00
2018-07-12T03:00:48.505Z,12.00
2018-07-12T03:01:48.516Z,16.00
2018-07-12T03:02:48.530Z,16.00
2018-07-12T03:03:48.538Z,20.00
2018-07-12T03:04:48.549Z,20.00
2018-07-12T03:05:48.553Z,24.00
2018-07-12T03:06:48.566Z,24.00
2018-07-12T03:07:48.581Z,28.00
2018-07-12T03:08:48.583Z,32.00
2018-07-12T03:09:48.601Z,36.00
2018-07-12T03:10:48.610Z,36.00
2018-07-12T03:11:48.618Z,40.00
2018-07-12T03:12:48.634Z,48.00
2018-07-12T03:13:48.639Z,52.00
2018-07-12T03:14:48.660Z,56.00
2018-07-12T03:15:48.662Z,64.00
2018-07-12T03:16:48.665Z,68.00
2018-07-12T03:17:48.680Z,76.00
2018-07-12T03:18:48.691Z,84.00
2018-07-12T03:19:48.698Z,92.00
2018-07-12T03:20:48.717Z,104.00
2018-07-12T03:21:48.719Z,108.00
2018-07-12T03:22:48.777Z,116.00
2018-07-12T03:23:48.809Z,124.00
2018-07-12T03:24:48.955Z,136.00
2018-07-12T03:25:48.905Z,148.00
2018-07-12T03:26:48.789Z,160.00
2018-07-12T03:27:48.875Z,172.00
2018-07-12T03:28:48.977Z,184.00
2018-07-12T03:29:48.994Z,196.00
2018-07-12T03:30:48.811Z,212.00
2018-07-12T03:31:48.825Z,228.00
2018-07-12T03:32:48.833Z,240.00
2018-07-12T03:33:48.844Z,256.00
2018-07-12T03:34:48.847Z,276.00
2018-07-12T03:35:48.864Z,292.00
2018-07-12T03:36:48.874Z,312.00
2018-07-12T03:37:48.875Z,332.00
2018-07-12T03:38:48.894Z,352.00
2018-07-12T03:39:48.901Z,376.00
2018-07-12T03:40:48.921Z,392.00
2018-07-12T03:41:48.918Z,416.00
2018-07-12T03:42:48.923Z,440.00
2018-07-12T03:43:48.940Z,460.00
2018-07-12T03:44:48.950Z,492.00
2018-07-12T03:45:48.963Z,516.00
2018-07-12T03:46:48.969Z,544.00
2018-07-12T03:47:48.975Z,568.00
2018-07-12T03:48:48.990Z,592.00
2018-07-12T03:49:48.997Z,616.00
2018-07-12T03:50:49.009Z,640.00
2018-07-12T03:51:49.020Z,664.00
2018-07-12T03:52:49.026Z,688.00
2018-07-12T03:53:49.042Z,720.00
2018-07-12T03:54:49.052Z,748.00
2018-07-12T03:55:49.074Z,776.00
2018-07-12T03:56:49.071Z,808.00
2018-07-12T03:57:49.078Z,836.00
2018-07-12T03:58:49.086Z,872.00
2018-07-12T03:59:49.115Z,896.00
2018-07-12T04:00:49.106Z,924.00
2018-07-12T04:01:49.119Z,956.00
2018-07-12T04:02:49.125Z,984.00
2018-07-12T04:03:49.144Z,1012.00
2018-07-12T04:04:49.153Z,1040.00
2018-07-12T04:05:49.163Z,1076.00
2018-07-12T04:06:49.173Z,1104.00
2018-07-12T04:07:49.179Z,1132.00
2018-07-12T04:08:49.185Z,1172.00
2018-07-12T04:09:49.203Z,1200.00
2018-07-12T04:10:49.243Z,1240.00
2018-07-12T04:11:49.226Z,1268.00
2018-07-12T04:12:49.234Z,1300.00
2018-07-12T04:13:49.239Z,1336.00
2018-07-12T04:14:49.245Z,1376.00
2018-07-12T04:15:49.266Z,1412.00
2018-07-12T04:16:49.269Z,1452.00
2018-07-12T04:17:49.277Z,1492.00
2018-07-12T04:18:49.292Z,1536.00
2018-07-12T04:19:49.310Z,1580.00
2018-07-12T04:20:49.308Z,1628.00
2018-07-12T04:21:49.317Z,1652.00
2018-07-12T04:22:49.332Z,1692.00
2018-07-12T04:23:49.335Z,1736.00
2018-07-12T04:24:49.344Z,1796.00
2018-07-12T04:25:49.361Z,1844.00
2018-07-12T04:26:49.371Z,1900.00
2018-07-12T04:27:49.381Z,1956.00
2018-07-12T04:28:49.387Z,2004.00
2018-07-12T04:29:49.399Z,2072.00
2018-07-12T04:30:49.407Z,2088.00
2018-07-12T04:31:49.422Z,2120.00
2018-07-12T04:32:49.430Z,2180.00
2018-07-12T04:33:49.480Z,2204.00
2018-07-12T04:34:49.454Z,2252.00
2018-07-12T04:35:49.466Z,2296.00
2018-07-12T04:36:49.486Z,2344.00
2018-07-12T04:37:49.504Z,2360.00
2018-07-12T04:38:49.489Z,2392.00
2018-07-12T04:39:49.506Z,2428.00
2018-07-12T04:40:49.511Z,2468.00
2018-07-12T04:41:49.526Z,2504.00
2018-07-12T04:42:49.533Z,2536.00
2018-07-12T04:43:49.548Z,2544.00
2018-07-12T04:45:49.572Z,2560.00
2018-07-12T04:46:49.581Z,2592.00
2018-07-12T04:47:49.590Z,2656.00
2018-07-12T04:48:49.591Z,2708.00
2018-07-12T04:49:49.609Z,2788.00
2018-07-12T04:50:49.621Z,2804.00
2018-07-12T04:51:49.631Z,2792.00
2018-07-12T04:52:49.628Z,2692.00
2018-07-12T04:53:49.648Z,2600.00
2018-07-12T04:54:49.655Z,2468.00
2018-07-12T04:55:49.681Z,2232.00
2018-07-12T04:56:49.673Z,2276.00
2018-07-12T04:57:49.686Z,2508.00
2018-07-12T04:58:49.698Z,2592.00
2018-07-12T04:59:49.707Z,2920.00
2018-07-12T05:00:49.720Z,3000.00
2018-07-12T05:01:49.735Z,3036.00
2018-07-12T05:02:49.744Z,3076.00
2018-07-12T05:03:49.752Z,3104.00
2018-07-12T05:04:49.777Z,3148.00
2018-07-12T05:05:49.790Z,3200.00
2018-07-12T05:06:49.785Z,3240.00
2018-07-12T05:07:49.786Z,3268.00
2018-07-12T05:08:49.805Z,3304.00
2018-07-12T05:09:49.809Z,3340.00
2018-07-12T05:10:49.836Z,3392.00
2018-07-12T05:11:49.838Z,3416.00
2018-07-12T05:12:49.847Z,3444.00
2018-07-12T05:13:49.865Z,3500.00
2018-07-12T05:14:49.863Z,3488.00
2018-07-12T05:15:49.881Z,3508.00
2018-07-12T05:16:49.887Z,3528.00
2018-07-12T05:17:49.930Z,3568.00
2018-07-12T05:18:49.910Z,3604.00
2018-07-12T05:19:49.928Z,3648.00
2018-07-12T05:20:49.931Z,3784.00
2018-07-12T05:21:49.967Z,3744.00
2018-07-12T05:22:49.956Z,3668.00
2018-07-12T05:23:49.965Z,3752.00
2018-07-12T05:24:49.979Z,3736.00
2018-07-12T05:25:49.986Z,3748.00
2018-07-12T05:26:50.000Z,3776.00
2018-07-12T05:27:50.010Z,3840.00
2018-07-12T05:28:50.012Z,3808.00
2018-07-12T05:29:50.026Z,3912.00
2018-07-12T05:30:50.093Z,3936.00
2018-07-12T05:31:50.054Z,3916.00
2018-07-12T05:32:50.066Z,3968.00
2018-07-12T05:33:50.076Z,4004.00
2018-07-12T05:34:50.086Z,3984.00
2018-07-12T05:35:50.094Z,4052.00
2018-07-12T05:36:50.119Z,4100.00
2018-07-12T05:37:50.116Z,4168.00
2018-07-12T05:38:50.227Z,4156.00
2018-07-12T05:39:50.138Z,4132.00
2018-07-12T05:40:50.157Z,4156.00
2018-07-12T05:41:50.160Z,4324.00
2018-07-12T05:42:50.175Z,4272.00
2018-07-12T05:43:50.183Z,4240.00
2018-07-12T05:44:50.194Z,4348.00
2018-07-12T05:45:50.204Z,4304.00
2018-07-12T05:46:50.216Z,4280.00
2018-07-12T05:47:50.240Z,4392.00
2018-07-12T05:48:50.243Z,4404.00
2018-07-12T05:49:50.249Z,4372.00
2018-07-12T05:50:50.262Z,4780.00
2018-07-12T05:51:50.273Z,4584.00
2018-07-12T05:52:50.278Z,4448.00
2018-07-12T05:53:50.291Z,4492.00
2018-07-12T05:54:50.303Z,4516.00
2018-07-12T05:55:50.314Z,4588.00
2018-07-12T05:56:50.316Z,4632.00
2018-07-12T05:57:50.333Z,4508.00
2018-07-12T05:58:50.349Z,4524.00
2018-07-12T05:59:50.362Z,4608.00
2018-07-12T06:00:50.377Z,4644.00
2018-07-12T06:01:50.380Z,4632.00
2018-07-12T06:02:50.435Z,4672.00
2018-07-12T06:03:50.403Z,4760.00
2018-07-12T06:04:50.423Z,4868.00
2018-07-12T06:05:50.433Z,4872.00
2018-07-12T06:06:50.442Z,4908.00
2018-07-12T06:07:50.453Z,5092.00
2018-07-12T06:08:50.464Z,4936.00
2018-07-12T06:09:50.487Z,4976.00
2018-07-12T06:10:50.483Z,5004.00
2018-07-12T06:11:50.501Z,5308.00
2018-07-12T06:12:50.509Z,4972.00
2018-07-12T06:13:50.520Z,4996.00
2018-07-12T06:14:50.544Z,5092.00
2018-07-12T06:15:50.550Z,5160.00
2018-07-12T06:16:50.555Z,5128.00
2018-07-12T06:17:50.568Z,5276.00
2018-07-12T06:18:50.580Z,5380.00
2018-07-12T06:19:50.596Z,5344.00
2018-07-12T06:20:50.604Z,5332.00
2018-07-12T06:21:50.616Z,5436.00
2018-07-12T06:22:50.639Z,5520.00
2018-07-12T06:23:50.636Z,5572.00
2018-07-12T06:24:50.648Z,5484.00
2018-07-12T06:25:50.657Z,5676.00
2018-07-12T06:26:50.673Z,5812.00
2018-07-12T06:27:50.686Z,6012.00
2018-07-12T06:28:50.690Z,6064.00
2018-07-12T06:29:50.717Z,6488.00
2018-07-12T06:30:50.720Z,6600.00
2018-07-12T06:31:50.734Z,6672.00
2018-07-12T06:32:50.746Z,6956.00
2018-07-12T06:33:50.761Z,6944.00
2018-07-12T06:34:50.763Z,6944.00
2018-07-12T06:35:50.788Z,7056.00
2018-07-12T06:36:50.795Z,7100.00
2018-07-12T06:37:50.809Z,6952.00
2018-07-12T06:38:50.816Z,7216.00
2018-07-12T06:39:50.832Z,7452.00
2018-07-12T06:40:50.848Z,7152.00
2018-07-12T06:41:50.861Z,7168.00
2018-07-12T06:42:50.874Z,7204.00
2018-07-12T06:43:50.888Z,7220.00
2018-07-12T06:44:50.905Z,7328.00
2018-07-12T06:45:50.911Z,7236.00
2018-07-12T06:46:50.936Z,7400.00
2018-07-12T06:47:50.950Z,7432.00
2018-07-12T06:48:50.963Z,7424.00
2018-07-12T06:49:50.980Z,8288.00
2018-07-12T06:50:50.998Z,7776.00
2018-07-12T06:51:51.009Z,7668.00
2018-07-12T06:52:51.038Z,7948.00
2018-07-12T06:53:51.040Z,7784.00
2018-07-12T06:54:51.060Z,7748.00
2018-07-12T06:55:51.072Z,7668.00
2018-07-12T06:56:51.097Z,7892.00
2018-07-12T06:57:51.101Z,7920.00
2018-07-12T06:58:51.115Z,8064.00
2018-07-12T06:59:51.140Z,8004.00
2018-07-12T07:00:51.154Z,8864.00
2018-07-12T07:01:51.171Z,8296.00
2018-07-12T07:02:51.197Z,8388.00
2018-07-12T07:03:51.197Z,8204.00
2018-07-12T07:04:51.227Z,8204.00
2018-07-12T07:05:51.238Z,8276.00
2018-07-12T07:06:51.254Z,8332.00
2018-07-12T07:07:51.265Z,8316.00
2018-07-12T07:08:51.288Z,8388.00
2018-07-12T07:09:51.302Z,8556.00
2018-07-12T07:10:51.314Z,9232.00
2018-07-12T07:11:51.334Z,8664.00
2018-07-12T07:12:51.346Z,8672.00
2018-07-12T07:13:51.369Z,8620.00
2018-07-12T07:14:51.465Z,8880.00
2018-07-12T07:15:51.398Z,8740.00
2018-07-12T07:16:51.423Z,8744.00
2018-07-12T07:17:51.431Z,8768.00
2018-07-12T07:18:51.451Z,8908.00
2018-07-12T07:19:51.474Z,8892.00
2018-07-12T07:20:51.484Z,8888.00
2018-07-12T07:21:51.496Z,9088.00
2018-07-12T07:22:51.520Z,9228.00
2018-07-12T07:23:51.525Z,9112.00
2018-07-12T07:24:51.554Z,9188.00
2018-07-12T07:25:51.597Z,9444.00
2018-07-12T07:26:51.596Z,9456.00
2018-07-12T07:27:51.605Z,9292.00
2018-07-12T07:28:51.610Z,9248.00
2018-07-12T07:29:51.635Z,9648.00
2018-07-12T07:30:51.657Z,9452.00
2018-07-12T07:31:51.674Z,9148.00
2018-07-12T07:32:51.688Z,9364.00
2018-07-12T07:33:51.720Z,9320.00
2018-07-12T07:34:51.729Z,9420.00
2018-07-12T07:35:51.739Z,10484.00
2018-07-12T07:36:51.757Z,9604.00
2018-07-12T07:37:51.769Z,9548.00
2018-07-12T07:38:51.788Z,9572.00
2018-07-12T07:39:51.813Z,9748.00
2018-07-12T07:40:51.823Z,9756.00
2018-07-12T07:41:51.849Z,9752.00
2018-07-12T07:42:51.887Z,10092.00
2018-07-12T07:43:51.883Z,10188.00
2018-07-12T07:44:51.896Z,9868.00
2018-07-12T07:45:51.916Z,10168.00
2018-07-12T07:46:51.928Z,10056.00
2018-07-12T07:47:51.950Z,10072.00
2018-07-12T07:48:51.967Z,10396.00
2018-07-12T07:49:52.019Z,10264.00
2018-07-12T07:50:52.001Z,10216.00
2018-07-12T07:52:52.037Z,10168.00
2018-07-12T07:53:52.053Z,10244.00
2018-07-12T07:54:52.064Z,10360.00
2018-07-12T07:55:52.091Z,10628.00
2018-07-12T07:56:52.113Z,10404.00
2018-07-12T07:57:52.123Z,10576.00
2018-07-12T07:58:52.148Z,10420.00
2018-07-12T07:59:52.164Z,10544.00
2018-07-12T08:00:52.179Z,10824.00
2018-07-12T08:01:52.198Z,10824.00
2018-07-12T08:02:52.228Z,10620.00
2018-07-12T08:03:52.234Z,10756.00
2018-07-12T08:04:52.242Z,10840.00
2018-07-12T08:05:52.281Z,10764.00
2018-07-12T08:06:52.283Z,10896.00
2018-07-12T08:07:52.325Z,10960.00
2018-07-12T08:09:52.341Z,11000.00
2018-07-12T08:10:52.357Z,10948.00
2018-07-12T08:11:52.382Z,11316.00
2018-07-12T08:12:52.399Z,11436.00
2018-07-12T08:13:52.416Z,11232.00
2018-07-12T08:14:52.437Z,10812.00
2018-07-12T08:15:52.452Z,11204.00
2018-07-12T08:16:52.466Z,10872.00
2018-07-12T08:17:52.483Z,11356.00
2018-07-12T08:19:52.527Z,11248.00
2018-07-12T08:20:52.545Z,10956.00
2018-07-12T08:21:52.556Z,11936.00
2018-07-12T08:22:52.578Z,11628.00
2018-07-12T08:23:52.603Z,11908.00
2018-07-12T08:24:52.611Z,11612.00
2018-07-12T08:25:52.664Z,11704.00
2018-07-12T08:26:52.647Z,11756.00
2018-07-12T08:27:52.663Z,12728.00
2018-07-12T08:28:52.745Z,11840.00
2018-07-12T08:29:52.723Z,11936.00
2018-07-12T08:30:52.729Z,11948.00
2018-07-12T08:31:52.744Z,12176.00
2018-07-12T08:32:52.775Z,12224.00
2018-07-12T08:33:52.777Z,12520.00
2018-07-12T08:34:52.800Z,12248.00
2018-07-12T08:35:52.827Z,12312.00
2018-07-12T08:36:52.865Z,12656.00
2018-07-12T08:37:52.857Z,12532.00
2018-07-12T08:38:52.877Z,12668.00
2018-07-12T08:39:52.907Z,13136.00
2018-07-12T08:40:52.946Z,13264.00
2018-07-12T08:41:52.933Z,13552.00
2018-07-12T08:42:53.003Z,13436.00
2018-07-12T08:43:52.971Z,13736.00
2018-07-12T08:44:52.984Z,13580.00
2018-07-12T08:45:53.005Z,13908.00
2018-07-12T08:46:53.026Z,14128.00
2018-07-12T08:47:53.040Z,14948.00
2018-07-12T08:48:53.060Z,14624.00
2018-07-12T08:49:53.082Z,13816.00
2018-07-12T08:50:53.104Z,11780.00
2018-07-12T08:51:53.121Z,13904.00
2018-07-12T08:52:53.163Z,13996.00
2018-07-12T08:53:53.158Z,14544.00
2018-07-12T08:54:53.180Z,14452.00
2018-07-12T08:55:53.197Z,14776.00
2018-07-12T08:56:53.224Z,15024.00
2018-07-12T08:57:53.236Z,15008.00
2018-07-12T08:58:53.255Z,15004.00
2018-07-12T08:59:53.277Z,11396.00
2018-07-12T09:00:53.305Z,8600.00
2018-07-12T09:01:53.310Z,15440.00
2018-07-12T09:02:53.435Z,15928.00
2018-07-12T09:03:53.364Z,11744.00
2018-07-12T09:04:53.394Z,8864.00
2018-07-12T09:05:53.387Z,10016.00
2018-07-12T09:06:53.420Z,10596.00
2018-07-12T09:07:53.425Z,10020.00
2018-07-12T09:08:53.444Z,17696.00
2018-07-12T09:09:53.463Z,17440.00
2018-07-12T09:10:53.479Z,17344.00
2018-07-12T09:11:53.498Z,17504.00
2018-07-12T09:12:53.515Z,15280.00
2018-07-12T09:13:53.539Z,17824.00
2018-07-12T09:14:53.546Z,17760.00
2018-07-12T09:15:53.578Z,12716.00
2018-07-12T09:16:53.594Z,10188.00
2018-07-12T09:17:53.609Z,9588.00
2018-07-12T09:18:53.671Z,9536.00
2018-07-12T09:19:53.645Z,18208.00
2018-07-12T09:20:53.662Z,19520.00
2018-07-12T09:21:53.679Z,19232.00
2018-07-12T09:22:53.709Z,19264.00
2018-07-12T09:23:53.710Z,12956.00
2018-07-12T09:24:53.731Z,18752.00
2018-07-12T09:25:53.749Z,18976.00
2018-07-12T09:26:53.780Z,18592.00
2018-07-12T09:27:53.792Z,17248.00
2018-07-12T09:28:53.877Z,12544.00
2018-07-12T09:29:53.828Z,16204.00
2018-07-12T09:30:53.880Z,14236.00
2018-07-12T09:31:53.866Z,18880.00
2018-07-12T09:32:53.876Z,19680.00
2018-07-12T09:33:53.902Z,20320.00
2018-07-12T09:34:53.938Z,20064.00
2018-07-12T09:35:53.946Z,10760.00
2018-07-12T09:36:53.970Z,9996.00
2018-07-12T09:37:53.987Z,9616.00
2018-07-12T09:38:53.997Z,10572.00
2018-07-12T09:39:54.029Z,22016.00
2018-07-12T09:40:54.055Z,22144.00
2018-07-12T09:41:54.044Z,21824.00
2018-07-12T09:42:54.079Z,22176.00
2018-07-12T09:44:54.108Z,22240.00
2018-07-12T09:45:54.139Z,19648.00
2018-07-12T09:46:54.141Z,11908.00
2018-07-12T09:47:54.163Z,11044.00
2018-07-12T09:48:54.200Z,17952.00
2018-07-12T09:49:54.206Z,20864.00
2018-07-12T09:51:54.237Z,21184.00
2018-07-12T09:52:54.257Z,20864.00
2018-07-12T09:53:54.275Z,21376.00
2018-07-12T09:55:15.827Z,21280.00
2018-07-12T09:55:54.441Z,19168.00
2018-07-12T09:56:54.809Z,21120.00
2018-07-12T09:57:54.351Z,22560.00
2018-07-12T09:58:54.377Z,22656.00
2018-07-12T09:59:54.386Z,22656.00
2018-07-12T10:00:54.406Z,13048.00
2018-07-12T10:01:54.444Z,11760.00
2018-07-12T10:02:54.449Z,18848.00
2018-07-12T10:03:54.468Z,22208.00
2018-07-12T10:04:54.494Z,17696.00
2018-07-12T10:05:54.505Z,22240.00
2018-07-12T10:06:54.523Z,22720.00
2018-07-12T10:07:54.543Z,23424.00
2018-07-12T10:08:54.563Z,23552.00
2018-07-12T10:09:54.580Z,23616.00
2018-07-12T10:10:54.607Z,13476.00
2018-07-12T10:11:54.624Z,15188.00
2018-07-12T10:12:54.636Z,23808.00
2018-07-12T10:13:54.662Z,24000.00
2018-07-12T10:14:54.676Z,23008.00
2018-07-12T10:15:54.701Z,23456.00
2018-07-12T10:16:54.715Z,23392.00
2018-07-12T10:17:54.741Z,23104.00
2018-07-12T10:18:54.754Z,23520.00
2018-07-12T10:19:54.832Z,16644.00
2018-07-12T10:20:54.796Z,11600.00
2018-07-12T10:21:54.811Z,11000.00
2018-07-12T10:22:54.840Z,11248.00
2018-07-12T10:23:54.854Z,18752.00
2018-07-12T10:24:54.860Z,10868.00
2018-07-12T10:25:54.885Z,9788.00
2018-07-12T10:26:54.906Z,9156.00
2018-07-12T10:27:54.926Z,8792.00
2018-07-12T10:28:54.947Z,17312.00
2018-07-12T10:29:54.974Z,10816.00
2018-07-12T10:30:54.976Z,10976.00
2018-07-12T10:33:55.029Z,23808.00
2018-07-12T10:34:55.048Z,23328.00
2018-07-12T10:35:55.059Z,21088.00
2018-07-12T10:36:55.090Z,23680.00
2018-07-12T10:38:55.124Z,24288.00
2018-07-12T10:39:55.139Z,12692.00
2018-07-12T10:40:55.172Z,22560.00
2018-07-12T10:41:55.179Z,23552.00
2018-07-12T10:42:55.198Z,22752.00
2018-07-12T10:43:55.219Z,23264.00
2018-07-12T10:44:55.236Z,22560.00
2018-07-12T10:45:55.251Z,23488.00
2018-07-12T10:46:55.270Z,23456.00
2018-07-12T10:47:55.305Z,23328.00
2018-07-12T10:48:55.310Z,24576.00
2018-07-12T10:49:55.332Z,23168.00
2018-07-12T10:50:55.367Z,24000.00
2018-07-12T10:51:55.372Z,17632.00
2018-07-12T10:52:55.402Z,20224.00
2018-07-12T10:53:55.409Z,16688.00
2018-07-12T10:54:55.431Z,20160.00
2018-07-12T10:55:55.457Z,24416.00
2018-07-12T10:56:55.465Z,25056.00
2018-07-12T10:57:55.488Z,25120.00
2018-07-12T10:58:55.536Z,20224.00
2018-07-12T10:59:55.528Z,18752.00
2018-07-12T11:00:55.545Z,12932.00
2018-07-12T11:01:55.571Z,11460.00
2018-07-12T11:02:55.593Z,10832.00
2018-07-12T11:03:55.653Z,10536.00
2018-07-12T11:04:55.624Z,23200.00
2018-07-12T11:05:55.640Z,23680.00
2018-07-12T11:06:55.659Z,24352.00
2018-07-12T11:07:55.675Z,24384.00
2018-07-12T11:08:55.698Z,14212.00
2018-07-12T11:09:55.710Z,17568.00
2018-07-12T11:10:55.736Z,23936.00
2018-07-12T11:11:55.752Z,14448.00
2018-07-12T11:12:55.773Z,11316.00
2018-07-12T11:13:55.809Z,10628.00
2018-07-12T11:14:55.818Z,10664.00
2018-07-12T11:15:55.880Z,15044.00
2018-07-12T11:16:55.900Z,14676.00
2018-07-12T11:17:55.868Z,22496.00
2018-07-12T11:18:55.886Z,23808.00
2018-07-12T11:19:55.906Z,25184.00
2018-07-12T11:20:55.928Z,26560.00
2018-07-12T11:21:55.953Z,14016.00
2018-07-12T11:22:55.950Z,12564.00
2018-07-12T11:23:55.977Z,12244.00
2018-07-12T11:24:56.002Z,12124.00
2018-07-12T11:25:56.017Z,13076.00
2018-07-12T11:26:56.040Z,13016.00
2018-07-12T11:27:56.053Z,12764.00
2018-07-12T11:28:56.072Z,16172.00
2018-07-12T11:29:56.100Z,12964.00
2018-07-12T11:30:56.122Z,12652.00
2018-07-12T11:31:56.127Z,15508.00
2018-07-12T11:32:56.186Z,23392.00
2018-07-12T11:33:56.162Z,22368.00
2018-07-12T11:35:56.201Z,15376.00
2018-07-12T11:36:56.224Z,18880.00
2018-07-12T11:37:56.225Z,24096.00
2018-07-12T11:38:56.251Z,24800.00
2018-07-12T11:39:56.263Z,21856.00
2018-07-12T11:40:56.282Z,19360.00
2018-07-12T11:41:56.316Z,12788.00
2018-07-12T11:42:56.324Z,12188.00
2018-07-12T11:43:56.338Z,11988.00
2018-07-12T11:44:56.366Z,15044.00
2018-07-12T11:45:56.372Z,17440.00
2018-07-12T11:46:56.404Z,24192.00
2018-07-12T11:47:56.414Z,23872.00
2018-07-12T11:48:56.430Z,16100.00
2018-07-12T11:49:56.451Z,23072.00
2018-07-12T11:50:56.519Z,24768.00
2018-07-12T11:51:56.480Z,22880.00
2018-07-12T11:52:56.564Z,22368.00
2018-07-12T11:53:56.527Z,20896.00
2018-07-12T11:54:56.543Z,19776.00
2018-07-12T11:55:56.561Z,13824.00
2018-07-12T11:56:56.583Z,16360.00
2018-07-12T11:57:56.607Z,18656.00
2018-07-12T11:58:56.620Z,22112.00
2018-07-12T11:59:56.637Z,23040.00
2018-07-12T12:00:56.660Z,23264.00
2018-07-12T12:01:56.812Z,23584.00
2018-07-12T12:02:56.698Z,22976.00
2018-07-12T12:03:56.714Z,16684.00
2018-07-12T12:04:56.739Z,23968.00
2018-07-12T12:05:56.771Z,15848.00
2018-07-12T12:06:56.886Z,22976.00
2018-07-12T12:07:56.798Z,22624.00
2018-07-12T12:08:56.813Z,22720.00
2018-07-12T12:09:56.857Z,23008.00
2018-07-12T12:10:56.856Z,22464.00
2018-07-12T12:11:56.875Z,23360.00
2018-07-12T12:12:56.965Z,19680.00
2018-07-12T12:13:56.922Z,12948.00
2018-07-12T12:14:56.949Z,11508.00
2018-07-12T12:15:56.969Z,10948.00
2018-07-12T12:17:57.002Z,10524.00
2018-07-12T12:18:57.017Z,10676.00
2018-07-12T12:19:57.037Z,10524.00
2018-07-12T12:20:57.070Z,10664.00
2018-07-12T12:21:57.080Z,10560.00
2018-07-12T12:22:57.096Z,10668.00
2018-07-12T12:23:57.116Z,11288.00
2018-07-12T12:24:57.133Z,11736.00
2018-07-12T12:25:57.160Z,22208.00
2018-07-12T12:26:57.181Z,22112.00
2018-07-12T12:27:57.188Z,14564.00
2018-07-12T12:28:57.244Z,21696.00